createdAt,value
2022-11-28T00:00:27.289Z,4.97
2022-11-28T00:01:33.922Z,4.97
2022-11-28T00:02:35.419Z,4.99
2022-11-28T00:03:36.976Z,4.98
2022-11-28T00:04:38.451Z,4.98
2022-11-28T00:05:44.260Z,4.98
2022-11-28T00:06:48.292Z,4.97
2022-11-28T00:07:49.767Z,4.98
2022-11-28T00:08:51.175Z,4.96
2022-11-28T00:09:52.569Z,4.96
2022-11-28T00:10:53.957Z,4.95
2022-11-28T00:11:55.555Z,4.95
2022-11-28T00:12:56.948Z,4.96
2022-11-28T00:13:58.296Z,5.03
2022-11-28T00:14:59.655Z,5.03
2022-11-28T00:16:02.147Z,5.00
2022-11-28T00:17:03.536Z,5.05
2022-11-28T00:18:04.987Z,5.04
2022-11-28T00:19:06.753Z,5.04
2022-11-28T00:20:08.172Z,5.01
2022-11-28T00:21:10.978Z,4.99
2022-11-28T00:22:12.634Z,5.02
2022-11-28T00:23:14.003Z,5.02
2022-11-28T00:24:15.432Z,5.02
2022-11-28T00:25:16.865Z,5.06
2022-11-28T00:26:20.575Z,5.05
2022-11-28T00:27:21.979Z,5.06
2022-11-28T00:28:23.582Z,5.09
2022-11-28T00:29:25.172Z,5.06
2022-11-28T00:30:26.574Z,5.06
2022-11-28T00:31:29.766Z,5.03
2022-11-28T00:32:31.208Z,5.09
2022-11-28T00:33:33.379Z,5.04
2022-11-28T00:34:34.764Z,5.01
2022-11-28T00:35:36.168Z,5.01
2022-11-28T00:36:37.560Z,5.00
2022-11-28T00:37:38.918Z,4.98
2022-11-28T00:38:40.399Z,4.98
2022-11-28T00:39:41.754Z,5.03
2022-11-28T00:40:43.116Z,5.04
2022-11-28T00:41:44.701Z,5.00
2022-11-28T00:42:46.052Z,5.02
2022-11-28T00:43:48.568Z,5.01
2022-11-28T00:44:49.944Z,5.03
2022-11-28T00:45:51.384Z,5.03
2022-11-28T00:46:52.797Z,5.03
2022-11-28T00:47:54.189Z,5.01
2022-11-28T00:48:56.992Z,5.02
2022-11-28T00:49:58.338Z,5.01
2022-11-28T00:51:32.198Z,5.02
2022-11-28T00:52:33.531Z,5.01
2022-11-28T00:53:35.376Z,5.04
2022-11-28T00:54:36.873Z,5.03
2022-11-28T00:55:38.824Z,5.02
2022-11-28T00:56:40.500Z,5.04
2022-11-28T00:57:42.007Z,5.02
2022-11-28T00:58:43.359Z,5.02
2022-11-28T00:59:44.945Z,5.02
2022-11-28T01:00:46.344Z,5.01
2022-11-28T01:01:47.825Z,4.99
2022-11-28T01:02:49.318Z,4.98
2022-11-28T01:03:51.665Z,4.95
2022-11-28T01:04:53.016Z,4.95
2022-11-28T01:05:54.370Z,4.93
2022-11-28T01:06:55.862Z,4.93
2022-11-28T01:07:57.325Z,4.94
2022-11-28T01:09:00.419Z,4.94
2022-11-28T01:10:01.813Z,4.92
2022-11-28T01:11:03.639Z,4.91
2022-11-28T01:12:05.092Z,4.91
2022-11-28T01:13:06.522Z,4.92
2022-11-28T01:14:08.367Z,4.91
2022-11-28T01:15:11.210Z,4.93
2022-11-28T01:16:13.000Z,4.91
2022-11-28T01:17:14.425Z,4.94
2022-11-28T01:18:15.743Z,4.92
2022-11-28T01:19:17.551Z,4.90
2022-11-28T01:20:18.932Z,4.91
2022-11-28T01:21:20.424Z,4.93
2022-11-28T01:22:21.813Z,4.91
2022-11-28T01:23:23.152Z,4.90
2022-11-28T01:24:24.530Z,4.90
2022-11-28T01:25:25.908Z,4.89
2022-11-28T01:26:28.412Z,4.91
2022-11-28T01:27:29.826Z,4.95
2022-11-28T01:28:31.189Z,4.95
2022-11-28T01:29:32.598Z,4.96
2022-11-28T01:30:33.980Z,4.96
2022-11-28T01:31:35.900Z,4.94
2022-11-28T01:32:37.289Z,4.96
2022-11-28T01:33:38.603Z,4.95
2022-11-28T01:34:40.074Z,4.93
2022-11-28T01:35:41.618Z,4.94
2022-11-28T01:36:42.982Z,4.94
2022-11-28T01:37:44.339Z,4.94
2022-11-28T01:38:45.782Z,5.03
2022-11-28T01:39:47.149Z,5.01
2022-11-28T01:40:48.523Z,4.99
2022-11-28T01:41:49.924Z,4.98
2022-11-28T01:42:51.487Z,4.98
2022-11-28T01:43:58.575Z,4.97
2022-11-28T01:45:07.994Z,4.97
2022-11-28T01:46:09.525Z,4.99
2022-11-28T01:47:11.017Z,5.01
2022-11-28T01:48:15.237Z,5.01
2022-11-28T01:49:27.076Z,5.03
2022-11-28T01:50:29.413Z,5.05
2022-11-28T01:51:31.580Z,5.07
2022-11-28T01:52:33.721Z,5.09
2022-11-28T01:53:37.631Z,5.07
2022-11-28T01:54:40.766Z,5.06
2022-11-28T01:56:02.502Z,5.04
2022-11-28T01:57:06.277Z,5.03
2022-11-28T01:58:07.692Z,5.05
2022-11-28T01:59:10.677Z,5.10
2022-11-28T02:00:13.902Z,5.09
2022-11-28T02:01:17.142Z,5.11
2022-11-28T02:02:23.217Z,5.08
2022-11-28T02:03:47.603Z,5.11
2022-11-28T02:04:50.337Z,5.16
2022-11-28T02:05:52.847Z,5.13
2022-11-28T02:06:55.017Z,5.10
2022-11-28T02:07:56.414Z,5.11
2022-11-28T02:08:57.863Z,5.09
2022-11-28T02:10:00.066Z,5.08
2022-11-28T02:11:16.470Z,5.08
2022-11-28T02:12:36.480Z,5.06
2022-11-28T02:13:44.736Z,5.04
2022-11-28T02:14:49.002Z,5.04
2022-11-28T02:16:02.615Z,5.03
2022-11-28T02:17:36.226Z,5.01
2022-11-28T02:18:50.587Z,5.07
2022-11-28T02:19:52.211Z,5.07
2022-11-28T02:20:56.216Z,5.09
2022-11-28T02:21:57.577Z,5.07
2022-11-28T02:23:08.251Z,5.08
2022-11-28T02:24:09.595Z,5.05
2022-11-28T02:25:29.772Z,5.10
2022-11-28T02:26:50.055Z,5.09
2022-11-28T02:28:09.983Z,5.11
2022-11-28T02:29:14.326Z,5.10
2022-11-28T02:30:26.462Z,5.10
2022-11-28T02:31:33.954Z,5.11
2022-11-28T02:32:35.400Z,5.15
2022-11-28T02:33:44.863Z,5.13
2022-11-28T02:35:04.748Z,5.11
2022-11-28T02:36:12.193Z,5.19
2022-11-28T02:37:43.011Z,5.18
2022-11-28T02:38:47.438Z,5.17
2022-11-28T02:39:51.327Z,5.16
2022-11-28T02:41:02.265Z,5.14
2022-11-28T02:42:09.799Z,5.15
2022-11-28T02:43:20.347Z,5.18
2022-11-28T02:44:32.834Z,5.17
2022-11-28T02:45:52.605Z,5.17
2022-11-28T02:46:58.084Z,5.16
2022-11-28T02:48:19.759Z,5.16
2022-11-28T02:49:21.178Z,5.11
2022-11-28T02:50:24.839Z,5.11
2022-11-28T02:51:31.300Z,5.09
2022-11-28T02:52:35.728Z,5.14
2022-11-28T02:53:37.483Z,5.12
2022-11-28T02:54:39.490Z,5.10
2022-11-28T02:55:42.867Z,5.10
2022-11-28T02:56:51.713Z,5.05
2022-11-28T02:57:53.947Z,5.09
2022-11-28T02:58:55.348Z,5.06
2022-11-28T02:59:56.709Z,5.04
2022-11-28T03:00:58.220Z,5.03
2022-11-28T03:02:00.539Z,5.03
2022-11-28T03:03:04.857Z,5.00
2022-11-28T03:04:06.260Z,5.03
2022-11-28T03:05:13.178Z,5.01
2022-11-28T03:06:29.972Z,5.00
2022-11-28T03:07:31.352Z,4.98
2022-11-28T03:08:35.551Z,5.02
2022-11-28T03:10:09.460Z,5.12
2022-11-28T03:11:23.246Z,5.09
2022-11-28T03:12:27.353Z,5.05
2022-11-28T03:13:37.294Z,5.03
2022-11-28T03:14:41.551Z,5.03
2022-11-28T03:15:46.049Z,4.99
2022-11-28T03:16:50.413Z,4.97
2022-11-28T03:17:54.556Z,4.97
2022-11-28T03:19:09.680Z,4.96
2022-11-28T03:20:15.042Z,4.95
2022-11-28T03:21:22.300Z,4.93
2022-11-28T03:22:23.726Z,4.91
2022-11-28T03:23:36.613Z,4.90
2022-11-28T03:24:43.518Z,4.88
2022-11-28T03:25:54.841Z,4.90
2022-11-28T03:27:06.199Z,4.95
2022-11-28T03:28:10.683Z,4.97
2022-11-28T03:29:15.726Z,4.93
2022-11-28T03:30:22.597Z,4.94
2022-11-28T03:31:27.260Z,4.92
2022-11-28T03:32:31.741Z,4.90
2022-11-28T03:33:37.151Z,4.93
2022-11-28T03:34:40.859Z,4.92
2022-11-28T03:35:47.087Z,4.89
2022-11-28T03:36:57.983Z,4.89
2022-11-28T03:38:02.885Z,4.88
2022-11-28T03:39:24.406Z,4.89
2022-11-28T03:40:28.140Z,4.88
2022-11-28T03:41:36.491Z,4.89
2022-11-28T03:42:43.658Z,4.95
2022-11-28T03:43:49.952Z,4.93
2022-11-28T03:44:58.884Z,4.91
2022-11-28T03:46:02.576Z,4.90
2022-11-28T03:47:05.517Z,4.90
2022-11-28T03:48:09.879Z,4.90
2022-11-28T03:49:12.406Z,4.91
2022-11-28T03:50:16.221Z,4.90
2022-11-28T03:51:32.732Z,4.88
2022-11-28T03:52:37.987Z,4.87
2022-11-28T03:53:49.655Z,4.87
2022-11-28T03:55:01.916Z,4.88
2022-11-28T03:56:07.610Z,4.87
2022-11-28T03:57:09.036Z,4.88
2022-11-28T03:58:14.924Z,4.88
2022-11-28T03:59:23.995Z,4.87
2022-11-28T04:00:25.582Z,4.85
2022-11-28T04:01:34.215Z,4.84
2022-11-28T04:02:44.549Z,4.87
2022-11-28T04:03:54.838Z,4.85
2022-11-28T04:05:19.392Z,4.83
2022-11-28T04:06:20.723Z,4.84
2022-11-28T04:07:27.904Z,4.82
2022-11-28T04:08:39.540Z,4.80
2022-11-28T04:09:43.471Z,4.79
2022-11-28T04:10:47.648Z,4.80
2022-11-28T04:11:54.655Z,4.83
2022-11-28T04:13:11.228Z,4.83
2022-11-28T04:14:18.360Z,4.84
2022-11-28T04:15:26.897Z,4.80
2022-11-28T04:16:53.630Z,4.79
2022-11-28T04:18:00.759Z,4.80
2022-11-28T04:19:16.754Z,4.80
2022-11-28T04:20:29.843Z,4.79
2022-11-28T04:21:39.931Z,4.79
2022-11-28T04:22:44.802Z,4.77
2022-11-28T04:23:50.080Z,4.76
2022-11-28T04:24:53.709Z,4.76
2022-11-28T04:26:01.908Z,4.76
2022-11-28T04:27:08.484Z,4.75
2022-11-28T04:28:14.843Z,4.74
2022-11-28T04:29:18.403Z,4.75
2022-11-28T04:30:19.821Z,4.76
2022-11-28T04:31:22.781Z,4.76
2022-11-28T04:32:25.491Z,4.77
2022-11-28T04:33:29.312Z,4.76
2022-11-28T04:34:32.305Z,4.76
2022-11-28T04:35:35.156Z,4.75
2022-11-28T04:36:38.950Z,4.77
2022-11-28T04:37:42.081Z,4.77
2022-11-28T04:38:45.484Z,4.77
2022-11-28T04:39:48.025Z,4.78
2022-11-28T04:40:52.467Z,4.78
2022-11-28T04:41:53.805Z,4.81
2022-11-28T04:43:00.489Z,4.82
2022-11-28T04:44:08.144Z,4.82
2022-11-28T04:45:12.593Z,4.82
2022-11-28T04:46:18.028Z,4.83
2022-11-28T04:47:19.442Z,4.82
2022-11-28T04:48:20.877Z,4.81
2022-11-28T04:49:23.670Z,4.80
2022-11-28T04:50:28.418Z,4.79
2022-11-28T04:51:29.761Z,4.77
2022-11-28T04:52:37.204Z,4.76
2022-11-28T04:53:48.305Z,4.77
2022-11-28T04:54:52.761Z,4.82
2022-11-28T04:55:59.143Z,4.80
2022-11-28T04:57:03.827Z,4.79
2022-11-28T04:58:05.129Z,4.78
2022-11-28T04:59:07.207Z,4.77
2022-11-28T05:00:10.680Z,4.77
2022-11-28T05:01:15.720Z,4.76
2022-11-28T05:02:18.641Z,4.75
2022-11-28T05:03:20.277Z,4.74
2022-11-28T05:04:21.702Z,4.73
2022-11-28T05:05:24.957Z,4.73
2022-11-28T05:06:27.813Z,4.72
2022-11-28T05:07:29.344Z,4.72
2022-11-28T05:08:30.906Z,4.72
2022-11-28T05:09:32.522Z,4.71
2022-11-28T05:10:34.004Z,4.70
2022-11-28T05:11:35.745Z,4.67
2022-11-28T05:12:37.354Z,4.68
2022-11-28T05:13:38.845Z,4.67
2022-11-28T05:14:40.611Z,4.66
2022-11-28T05:15:42.359Z,4.65
2022-11-28T05:16:43.941Z,4.64
2022-11-28T05:17:47.112Z,4.63
2022-11-28T05:18:49.019Z,4.62
2022-11-28T05:19:50.442Z,4.59
2022-11-28T05:20:51.916Z,4.58
2022-11-28T05:21:53.311Z,4.58
2022-11-28T05:22:54.692Z,4.56
2022-11-28T05:23:56.112Z,4.54
2022-11-28T05:24:57.642Z,4.52
2022-11-28T05:25:59.288Z,4.50
2022-11-28T05:27:00.731Z,4.50
2022-11-28T05:28:02.209Z,4.49
2022-11-28T05:29:04.371Z,4.50
2022-11-28T05:30:06.228Z,4.52
2022-11-28T05:31:07.714Z,4.53
2022-11-28T05:32:09.674Z,4.51
2022-11-28T05:33:11.057Z,4.49
2022-11-28T05:34:12.442Z,4.48
2022-11-28T05:35:14.086Z,4.45
2022-11-28T05:36:15.992Z,4.44
2022-11-28T05:37:17.382Z,4.44
2022-11-28T05:38:18.769Z,4.42
2022-11-28T05:39:20.129Z,4.41
2022-11-28T05:40:21.577Z,4.42
2022-11-28T05:41:26.547Z,4.43
2022-11-28T05:42:28.063Z,4.42
2022-11-28T05:43:30.085Z,4.40
2022-11-28T05:44:31.458Z,4.40
2022-11-28T05:45:32.866Z,4.41
2022-11-28T05:46:34.284Z,4.43
2022-11-28T05:47:35.902Z,4.42
2022-11-28T05:48:37.338Z,4.44
2022-11-28T05:49:38.716Z,4.44
2022-11-28T05:50:40.716Z,4.43
2022-11-28T05:51:42.626Z,4.42
2022-11-28T05:52:44.136Z,4.44
2022-11-28T05:53:45.900Z,4.46
2022-11-28T05:54:47.506Z,4.46
2022-11-28T05:55:49.221Z,4.46
2022-11-28T05:56:50.731Z,4.49
2022-11-28T05:57:52.293Z,4.49
2022-11-28T05:58:56.715Z,4.50
2022-11-28T05:59:58.275Z,4.49
2022-11-28T06:00:59.639Z,4.50
2022-11-28T06:02:01.196Z,4.50
2022-11-28T06:03:03.826Z,4.51
2022-11-28T06:04:05.216Z,4.51
2022-11-28T06:05:21.329Z,4.50
2022-11-28T06:06:29.919Z,4.51
2022-11-28T06:07:31.647Z,4.51
2022-11-28T06:08:33.238Z,4.51
2022-11-28T06:09:34.700Z,4.51
2022-11-28T06:10:38.052Z,4.51
2022-11-28T06:11:41.418Z,4.50
2022-11-28T06:12:42.847Z,4.51
2022-11-28T06:13:44.921Z,4.53
2022-11-28T06:14:46.337Z,4.55
2022-11-28T06:15:47.669Z,4.56
2022-11-28T06:16:49.208Z,4.56
2022-11-28T06:17:50.644Z,4.56
2022-11-28T06:18:52.736Z,4.54
2022-11-28T06:19:54.269Z,4.53
2022-11-28T06:20:55.636Z,4.52
2022-11-28T06:21:57.075Z,4.52
2022-11-28T06:22:58.422Z,4.53
2022-11-28T06:24:00.322Z,4.50
2022-11-28T06:25:01.714Z,4.48
2022-11-28T06:26:11.949Z,4.46
2022-11-28T06:27:13.349Z,4.45
2022-11-28T06:28:14.743Z,4.43
2022-11-28T06:29:16.233Z,4.43
2022-11-28T06:30:20.722Z,4.42
2022-11-28T06:31:23.541Z,4.42
2022-11-28T06:32:24.985Z,4.41
2022-11-28T06:33:26.322Z,4.40
2022-11-28T06:34:27.685Z,4.40
2022-11-28T06:35:29.044Z,4.41
2022-11-28T06:36:30.437Z,4.43
2022-11-28T06:37:31.880Z,4.44
2022-11-28T06:38:33.465Z,4.43
2022-11-28T06:39:34.886Z,4.45
2022-11-28T06:40:37.885Z,4.46
2022-11-28T06:41:39.820Z,4.48
2022-11-28T06:42:41.332Z,4.51
2022-11-28T06:43:42.737Z,4.51
2022-11-28T06:44:44.111Z,4.49
2022-11-28T06:45:45.564Z,4.51
2022-11-28T06:46:46.989Z,4.49
2022-11-28T06:47:48.332Z,4.50
2022-11-28T06:48:51.040Z,4.49
2022-11-28T06:49:52.549Z,4.50
2022-11-28T06:50:54.541Z,4.50
2022-11-28T06:51:55.936Z,4.50
2022-11-28T06:52:57.329Z,4.50
2022-11-28T06:53:58.683Z,4.49
2022-11-28T06:55:00.048Z,4.52
2022-11-28T06:56:05.554Z,4.53
2022-11-28T06:57:06.926Z,4.51
2022-11-28T06:58:08.517Z,4.50
2022-11-28T06:59:13.787Z,4.53
2022-11-28T07:00:16.201Z,4.54
2022-11-28T07:01:19.035Z,4.56
2022-11-28T07:02:20.608Z,4.57
2022-11-28T07:03:22.012Z,4.55
2022-11-28T07:04:23.395Z,4.54
2022-11-28T07:05:25.510Z,4.53
2022-11-28T07:06:27.433Z,4.52
2022-11-28T07:07:28.989Z,4.52
2022-11-28T07:08:30.912Z,4.52
2022-11-28T07:09:32.330Z,4.51
2022-11-28T07:10:33.800Z,4.55
2022-11-28T07:11:35.219Z,4.58
2022-11-28T07:12:36.646Z,4.56
2022-11-28T07:13:38.201Z,4.56
2022-11-28T07:14:39.601Z,4.57
2022-11-28T07:15:47.921Z,4.61
2022-11-28T07:16:49.457Z,4.68
2022-11-28T07:17:51.226Z,4.68
2022-11-28T07:18:53.491Z,4.67
2022-11-28T07:19:55.349Z,4.68
2022-11-28T07:20:59.390Z,4.67
2022-11-28T07:22:00.941Z,4.68
2022-11-28T07:23:02.468Z,4.69
2022-11-28T07:24:03.846Z,4.72
2022-11-28T07:25:05.537Z,4.72
2022-11-28T07:26:07.584Z,4.72
2022-11-28T07:27:09.020Z,4.73
2022-11-28T07:28:10.442Z,4.73
2022-11-28T07:29:15.600Z,4.77
2022-11-28T07:30:17.073Z,4.81
2022-11-28T07:31:19.716Z,4.84
2022-11-28T07:32:21.131Z,4.85
2022-11-28T07:33:22.635Z,4.86
2022-11-28T07:34:24.121Z,4.87
2022-11-28T07:35:25.584Z,4.89
2022-11-28T07:36:27.874Z,4.91
2022-11-28T07:37:29.272Z,4.94
2022-11-28T07:38:30.958Z,4.95
2022-11-28T07:39:32.582Z,4.97
2022-11-28T07:40:33.975Z,5.00
2022-11-28T07:41:35.570Z,4.99
2022-11-28T07:42:36.933Z,4.99
2022-11-28T07:43:38.968Z,4.97
2022-11-28T07:44:40.351Z,4.98
2022-11-28T07:45:59.588Z,4.99
2022-11-28T07:47:02.298Z,5.00
2022-11-28T07:48:03.696Z,5.01
2022-11-28T07:49:05.162Z,5.03
2022-11-28T07:50:06.922Z,5.03
2022-11-28T07:51:19.338Z,5.06
2022-11-28T07:52:20.721Z,5.06
2022-11-28T07:53:23.466Z,5.09
2022-11-28T07:54:24.852Z,5.10
2022-11-28T07:55:26.207Z,5.12
2022-11-28T07:56:39.559Z,5.11
2022-11-28T07:57:50.652Z,5.14
2022-11-28T07:58:52.162Z,5.17
2022-11-28T07:59:53.597Z,5.17
2022-11-28T08:00:55.018Z,5.19
2022-11-28T08:01:56.428Z,5.20
2022-11-28T08:02:57.890Z,5.21
2022-11-28T08:04:00.003Z,5.21
2022-11-28T08:05:01.504Z,5.25
2022-11-28T08:06:03.428Z,5.32
2022-11-28T08:07:04.805Z,5.32
2022-11-28T08:08:06.269Z,5.31
2022-11-28T08:09:08.402Z,5.32
2022-11-28T08:10:09.842Z,5.32
2022-11-28T08:11:11.226Z,5.32
2022-11-28T08:12:12.658Z,5.35
2022-11-28T08:13:14.138Z,5.35
2022-11-28T08:14:15.493Z,5.37
2022-11-28T08:15:16.924Z,5.37
2022-11-28T08:16:20.033Z,5.37
2022-11-28T08:17:21.508Z,5.38
2022-11-28T08:18:23.262Z,5.39
2022-11-28T08:19:25.001Z,5.42
2022-11-28T08:20:26.468Z,5.44
2022-11-28T08:21:30.074Z,5.44
2022-11-28T08:22:31.497Z,5.46
2022-11-28T08:23:33.860Z,5.47
2022-11-28T08:24:35.280Z,5.49
2022-11-28T08:25:36.672Z,5.51
2022-11-28T08:26:38.141Z,5.53
2022-11-28T08:27:39.539Z,5.55
2022-11-28T08:28:41.372Z,5.57
2022-11-28T08:29:43.083Z,5.59
2022-11-28T08:30:44.616Z,5.61
2022-11-28T08:31:46.081Z,5.62
2022-11-28T08:32:47.526Z,5.65
2022-11-28T08:33:50.058Z,5.66
2022-11-28T08:34:51.493Z,5.66
2022-11-28T08:35:53.303Z,5.69
2022-11-28T08:36:54.690Z,5.72
2022-11-28T08:38:01.473Z,5.73
2022-11-28T08:39:22.952Z,5.75
2022-11-28T08:40:25.504Z,5.78
2022-11-28T08:41:26.913Z,5.89
2022-11-28T08:42:28.512Z,5.90
2022-11-28T08:43:29.891Z,5.89
2022-11-28T08:44:31.291Z,5.93
2022-11-28T08:45:32.749Z,5.93
2022-11-28T08:46:34.225Z,5.94
2022-11-28T08:47:35.657Z,5.94
2022-11-28T08:48:37.604Z,5.96
2022-11-28T08:49:39.020Z,5.97
2022-11-28T08:50:48.049Z,5.97
2022-11-28T08:51:49.673Z,5.98
2022-11-28T08:52:51.030Z,6.00
2022-11-28T08:53:57.897Z,6.00
2022-11-28T08:55:00.989Z,6.02
2022-11-28T08:56:02.333Z,6.08
2022-11-28T08:57:03.697Z,6.08
2022-11-28T08:58:05.151Z,6.08
2022-11-28T08:59:06.568Z,6.07
2022-11-28T09:00:08.122Z,6.10
2022-11-28T09:01:16.617Z,6.12
2022-11-28T09:02:20.832Z,6.12
2022-11-28T09:03:26.080Z,6.14
2022-11-28T09:04:27.454Z,6.15
2022-11-28T09:05:29.267Z,6.18
2022-11-28T09:06:30.633Z,6.20
2022-11-28T09:07:32.060Z,6.21
2022-11-28T09:08:33.496Z,6.25
2022-11-28T09:09:34.841Z,6.24
2022-11-28T09:10:37.296Z,6.25
2022-11-28T09:11:38.732Z,6.26
2022-11-28T09:12:40.116Z,6.29
2022-11-28T09:13:41.878Z,6.30
2022-11-28T09:14:43.310Z,6.33
2022-11-28T09:15:46.772Z,6.35
2022-11-28T09:16:50.559Z,6.37
2022-11-28T09:17:52.563Z,6.40
2022-11-28T09:18:54.373Z,6.41
2022-11-28T09:19:55.742Z,6.42
2022-11-28T09:21:01.220Z,6.46
2022-11-28T09:22:02.629Z,6.46
2022-11-28T09:23:04.028Z,6.48
2022-11-28T09:24:05.689Z,6.51
2022-11-28T09:25:07.429Z,6.63
2022-11-28T09:26:09.789Z,6.60
2022-11-28T09:27:11.173Z,6.60
2022-11-28T09:28:12.570Z,6.60
2022-11-28T09:29:14.010Z,6.62
2022-11-28T09:30:15.483Z,6.64
2022-11-28T09:31:17.737Z,6.65
2022-11-28T09:32:19.201Z,6.66
2022-11-28T09:33:20.530Z,6.67
2022-11-28T09:34:21.883Z,6.67
2022-11-28T09:35:23.224Z,6.71
2022-11-28T09:36:24.764Z,6.75
2022-11-28T09:37:27.857Z,6.74
2022-11-28T09:38:29.184Z,6.77
2022-11-28T09:39:44.017Z,6.78
2022-11-28T09:40:52.376Z,6.79
2022-11-28T09:42:01.505Z,6.83
2022-11-28T09:43:04.058Z,6.85
2022-11-28T09:44:12.491Z,6.88
2022-11-28T09:45:18.705Z,6.91
2022-11-28T09:46:24.487Z,6.95
2022-11-28T09:47:28.248Z,6.98
2022-11-28T09:48:38.059Z,7.02
2022-11-28T09:49:51.769Z,7.02
2022-11-28T09:50:55.954Z,7.03
2022-11-28T09:52:12.086Z,7.06
2022-11-28T09:53:16.453Z,7.09
2022-11-28T09:54:32.975Z,7.08
2022-11-28T09:55:43.011Z,7.15
2022-11-28T09:56:47.339Z,7.17
2022-11-28T09:57:49.983Z,7.18
2022-11-28T09:58:55.408Z,7.18
2022-11-28T09:59:56.831Z,7.16
2022-11-28T10:01:04.163Z,7.17
2022-11-28T10:02:18.283Z,7.19
2022-11-28T10:03:29.013Z,7.20
2022-11-28T10:04:39.445Z,7.19
2022-11-28T10:05:49.668Z,7.22
2022-11-28T10:07:26.649Z,7.25
2022-11-28T10:08:28.089Z,7.28
2022-11-28T10:09:35.125Z,7.31
2022-11-28T10:10:36.481Z,7.32
2022-11-28T10:11:50.093Z,7.32
2022-11-28T10:13:11.069Z,7.35
2022-11-28T10:14:24.677Z,7.37
2022-11-28T10:15:28.949Z,7.36
2022-11-28T10:16:33.488Z,7.39
2022-11-28T10:17:53.605Z,7.42
2022-11-28T10:18:57.283Z,7.50
2022-11-28T10:20:02.452Z,7.49
2022-11-28T10:21:10.253Z,7.51
2022-11-28T10:22:15.584Z,7.51
2022-11-28T10:23:23.937Z,7.55
2022-11-28T10:24:37.180Z,7.50
2022-11-28T10:25:41.289Z,7.48
2022-11-28T10:26:50.690Z,7.48
2022-11-28T10:27:52.091Z,7.48
2022-11-28T10:28:55.496Z,7.49
2022-11-28T10:30:01.477Z,7.51
2022-11-28T10:31:02.890Z,7.52
2022-11-28T10:32:05.277Z,7.56
2022-11-28T10:33:06.598Z,7.57
2022-11-28T10:34:07.999Z,7.60
2022-11-28T10:35:28.325Z,7.66
2022-11-28T10:36:39.241Z,7.73
2022-11-28T10:37:40.647Z,7.76
2022-11-28T10:38:42.176Z,7.78
2022-11-28T10:39:44.534Z,7.81
2022-11-28T10:41:15.301Z,7.84
2022-11-28T10:42:35.295Z,7.91
2022-11-28T10:43:51.457Z,7.94
2022-11-28T10:45:31.485Z,7.97
2022-11-28T10:46:41.997Z,8.00
2022-11-28T10:48:29.623Z,8.00
2022-11-28T10:49:29.399Z,8.00
2022-11-28T10:50:39.055Z,7.99
2022-11-28T10:51:43.196Z,8.03
2022-11-28T10:52:46.564Z,8.01
2022-11-28T10:53:47.894Z,8.05
2022-11-28T10:54:49.275Z,8.07
2022-11-28T10:56:11.591Z,8.08
2022-11-28T10:57:13.192Z,8.14
2022-11-28T10:58:22.932Z,8.18
2022-11-28T10:59:43.049Z,8.22
2022-11-28T11:00:45.192Z,8.21
2022-11-28T11:01:50.263Z,8.23
2022-11-28T11:02:56.038Z,8.28
2022-11-28T11:03:57.511Z,8.31
2022-11-28T11:04:59.090Z,8.28
2022-11-28T11:06:00.515Z,8.28
2022-11-28T11:07:12.770Z,8.30
2022-11-28T11:08:19.395Z,8.34
2022-11-28T11:09:20.890Z,8.37
2022-11-28T11:10:31.764Z,8.37
2022-11-28T11:11:34.839Z,8.40
2022-11-28T11:12:36.262Z,8.46
2022-11-28T11:14:03.601Z,8.49
2022-11-28T11:15:29.288Z,8.47
2022-11-28T11:16:47.390Z,8.45
2022-11-28T11:17:48.902Z,8.47
2022-11-28T11:18:51.874Z,8.44
2022-11-28T11:19:53.281Z,8.43
2022-11-28T11:21:08.734Z,8.41
2022-11-28T11:22:12.807Z,8.39
2022-11-28T11:23:19.351Z,8.44
2022-11-28T11:24:20.712Z,8.41
2022-11-28T11:25:22.577Z,8.39
2022-11-28T11:26:31.954Z,8.40
2022-11-28T11:27:35.137Z,8.41
2022-11-28T11:28:41.129Z,8.46
2022-11-28T11:29:44.719Z,8.46
2022-11-28T11:30:46.633Z,8.46
2022-11-28T11:31:51.052Z,8.45
2022-11-28T11:32:52.806Z,8.46
2022-11-28T11:34:05.359Z,8.55
2022-11-28T11:35:16.170Z,8.55
2022-11-28T11:36:24.981Z,8.52
2022-11-28T11:37:38.721Z,8.51
2022-11-28T11:38:40.139Z,8.53
2022-11-28T11:39:49.414Z,8.54
2022-11-28T11:40:50.918Z,8.53
2022-11-28T11:42:01.214Z,8.53
2022-11-28T11:43:02.617Z,8.50
2022-11-28T11:44:15.834Z,8.50
2022-11-28T11:45:25.034Z,8.49
2022-11-28T11:46:26.423Z,8.48
2022-11-28T11:47:41.130Z,8.46
2022-11-28T11:48:42.496Z,8.49
2022-11-28T11:49:45.707Z,8.49
2022-11-28T11:50:54.299Z,8.46
2022-11-28T11:51:56.920Z,8.39
2022-11-28T11:53:27.509Z,8.40
2022-11-28T11:54:28.867Z,8.39
2022-11-28T11:55:31.543Z,8.36
2022-11-28T11:56:37.201Z,8.35
2022-11-28T11:57:41.620Z,8.32
2022-11-28T11:58:51.878Z,8.28
2022-11-28T11:59:55.853Z,8.27
2022-11-28T12:00:59.585Z,8.26
2022-11-28T12:02:02.828Z,8.27
2022-11-28T12:03:14.941Z,8.27
2022-11-28T12:04:43.685Z,8.27
2022-11-28T12:06:12.850Z,8.28
2022-11-28T12:07:17.054Z,8.31
2022-11-28T12:08:30.678Z,8.29
2022-11-28T12:09:36.276Z,8.29
2022-11-28T12:10:43.472Z,8.31
2022-11-28T12:11:49.059Z,8.33
2022-11-28T12:12:50.513Z,8.33
2022-11-28T12:13:52.173Z,8.34
2022-11-28T12:14:53.539Z,8.31
2022-11-28T12:16:00.974Z,8.34
2022-11-28T12:17:40.579Z,8.36
2022-11-28T12:18:38.511Z,8.37
2022-11-28T12:19:39.834Z,8.38
2022-11-28T12:20:53.329Z,8.40
2022-11-28T12:22:10.025Z,8.43
2022-11-28T12:23:17.376Z,8.43
2022-11-28T12:24:22.721Z,8.41
2022-11-28T12:25:37.351Z,8.38
2022-11-28T12:26:41.389Z,8.37
2022-11-28T12:27:42.781Z,8.34
2022-11-28T12:28:53.206Z,8.34
2022-11-28T12:30:06.223Z,8.33
2022-11-28T12:31:13.783Z,8.34
2022-11-28T12:32:25.196Z,8.36
2022-11-28T12:33:46.955Z,8.41
2022-11-28T12:34:57.412Z,8.40
2022-11-28T12:36:03.036Z,8.43
2022-11-28T12:37:14.220Z,8.42
2022-11-28T12:38:18.566Z,8.40
2022-11-28T12:39:19.926Z,8.46
2022-11-28T12:40:39.815Z,8.48
2022-11-28T12:41:44.197Z,8.50
2022-11-28T12:42:48.294Z,8.52
2022-11-28T12:44:08.358Z,8.54
2022-11-28T12:45:18.910Z,8.58
2022-11-28T12:46:28.408Z,8.57
2022-11-28T12:47:29.852Z,8.59
2022-11-28T12:48:31.159Z,8.58
2022-11-28T12:49:38.757Z,8.66
2022-11-28T12:50:42.394Z,8.65
2022-11-28T12:51:43.786Z,8.66
2022-11-28T12:52:54.017Z,8.63
2022-11-28T12:53:55.393Z,8.66
2022-11-28T12:55:02.797Z,8.65
2022-11-28T12:56:04.134Z,8.66
2022-11-28T12:57:09.400Z,8.64
2022-11-28T12:58:19.750Z,8.61
2022-11-28T12:59:30.047Z,8.59
2022-11-28T13:00:31.412Z,8.60
2022-11-28T13:01:41.717Z,8.60
2022-11-28T13:02:58.229Z,8.62
2022-11-28T13:04:18.122Z,8.62
2022-11-28T13:05:27.160Z,8.63
2022-11-28T13:06:36.612Z,8.63
2022-11-28T13:07:56.524Z,8.65
2022-11-28T13:09:00.796Z,8.69
2022-11-28T13:10:11.087Z,8.69
2022-11-28T13:11:32.664Z,8.70
2022-11-28T13:13:06.536Z,8.69
2022-11-28T13:14:14.030Z,8.71
2022-11-28T13:15:15.353Z,8.72
2022-11-28T13:16:27.381Z,8.75
2022-11-28T13:17:40.968Z,8.78
2022-11-28T13:18:45.135Z,8.79
2022-11-28T13:20:00.158Z,8.79
2022-11-28T13:21:04.052Z,8.81
2022-11-28T13:22:09.827Z,8.81
2022-11-28T13:23:29.162Z,8.82
2022-11-28T13:24:43.733Z,8.82
2022-11-28T13:25:59.533Z,8.86
2022-11-28T13:27:00.942Z,8.90
2022-11-28T13:28:02.401Z,8.89
2022-11-28T13:29:09.826Z,8.91
2022-11-28T13:30:14.166Z,8.88
2022-11-28T13:31:18.694Z,8.89
2022-11-28T13:32:25.864Z,8.91
2022-11-28T13:33:40.589Z,8.90
2022-11-28T13:34:42.353Z,8.88
2022-11-28T13:35:45.554Z,8.85
2022-11-28T13:39:11.901Z,8.82
2022-11-28T13:40:27.269Z,8.88
2022-11-28T13:42:09.735Z,8.90
2022-11-28T13:43:08.494Z,8.85
2022-11-28T13:44:25.663Z,8.83
2022-11-28T13:45:39.231Z,8.84
2022-11-28T13:46:45.218Z,8.82
2022-11-28T13:47:46.936Z,8.77
2022-11-28T13:50:28.096Z,8.76
2022-11-28T13:51:32.820Z,8.72
2022-11-28T13:52:41.277Z,8.68
2022-11-28T13:53:43.770Z,8.65
2022-11-28T13:54:52.015Z,8.65
2022-11-28T13:55:53.332Z,8.66
2022-11-28T13:57:08.868Z,8.64
2022-11-28T13:58:31.411Z,8.61
2022-11-28T13:59:33.192Z,8.62
2022-11-28T14:00:34.666Z,8.60
2022-11-28T14:01:45.712Z,8.60
2022-11-28T14:02:49.603Z,8.61
2022-11-28T14:03:53.211Z,8.60
2022-11-28T14:04:54.685Z,8.59
2022-11-28T14:05:57.762Z,8.57
2022-11-28T14:07:02.256Z,8.53
2022-11-28T14:08:04.528Z,8.55
2022-11-28T14:09:08.526Z,8.52
2022-11-28T14:10:23.181Z,8.51
2022-11-28T14:11:39.716Z,8.53
2022-11-28T14:12:59.707Z,8.52
2022-11-28T14:14:16.483Z,8.51
2022-11-28T14:15:23.751Z,8.49
2022-11-28T14:16:38.490Z,8.50
2022-11-28T14:17:46.113Z,8.52
2022-11-28T14:18:56.844Z,8.52
2022-11-28T14:20:18.454Z,8.51
2022-11-28T14:21:22.610Z,8.48
2022-11-28T14:22:31.480Z,8.49
2022-11-28T14:23:46.394Z,8.49
2022-11-28T14:25:01.585Z,8.50
2022-11-28T14:26:12.028Z,8.51
2022-11-28T14:27:17.485Z,8.47
2022-11-28T14:28:21.922Z,8.47
2022-11-28T14:29:27.419Z,8.45
2022-11-28T14:30:28.898Z,8.44
2022-11-28T14:31:39.928Z,8.43
2022-11-28T14:32:43.073Z,8.40
2022-11-28T14:33:45.589Z,8.39
2022-11-28T14:34:48.681Z,8.39